Time;durP1;ratioP1;P1;durP2;ratioP2;P2;SDS_P1;SDS_P2;PMS_P1;PMS_P2;Temp;Humidity;BMP_temperature;BMP_pressure;BME280_temperature;BME280_humidity;BME280_pressure;Samples;Min_cycle;Max_cycle;Signal;HPM_P1;HPM_P2
2023/05/16 00:01:08;;;;;;;18.92;2.58;;;;;;;8.29;100.00;102120.34;4988296;28;20026;-65
2023/05/16 00:03:33;;;;;;;10.32;2.08;;;;;;;8.25;100.00;102122.97;4988542;28;20031;-64
2023/05/16 00:06:01;;;;;;;14.35;2.25;;;;;;;8.20;100.00;102120.38;4989406;28;20081;-64
2023/05/16 00:08:27;;;;;;;14.48;2.50;;;;;;;8.09;100.00;102118.66;4988540;28;20050;-65
2023/05/16 00:10:52;;;;;;;20.73;2.85;;;;;;;8.05;100.00;102122.16;4987432;28;20081;-65
2023/05/16 00:13:24;;;;;;;19.40;3.03;;;;;;;8.00;100.00;102123.06;5000301;28;20042;-63
2023/05/16 00:15:50;;;;;;;12.95;1.98;;;;;;;7.89;100.00;102130.94;5006088;28;20033;-64
2023/05/16 00:18:17;;;;;;;10.85;2.60;;;;;;;7.80;100.00;102124.81;5000091;28;20033;-65
2023/05/16 00:20:42;;;;;;;12.45;2.30;;;;;;;7.67;100.00;102123.97;4969632;28;20030;-63
2023/05/16 00:23:07;;;;;;;17.45;2.53;;;;;;;7.62;100.00;102128.38;4968350;28;20031;-65
2023/05/16 00:25:33;;;;;;;13.90;2.20;;;;;;;7.57;100.00;102125.75;4968747;28;20101;-63
2023/05/16 00:27:58;;;;;;;11.98;2.22;;;;;;;7.48;100.00;102125.75;4981721;28;20045;-62
2023/05/16 00:30:23;;;;;;;20.58;2.88;;;;;;;7.44;100.00;102124.00;5007195;28;20077;-63
2023/05/16 00:32:49;;;;;;;15.45;2.80;;;;;;;7.42;100.00;102126.63;5007868;28;20046;-66
2023/05/16 00:35:14;;;;;;;16.92;2.78;;;;;;;7.36;100.00;102118.75;4981662;28;20433;-63
2023/05/16 00:37:40;;;;;;;20.02;3.35;;;;;;;7.35;100.00;102124.00;4969959;28;20528;-63
2023/05/16 00:40:06;;;;;;;14.07;2.30;;;;;;;7.32;100.00;102124.88;4974402;28;20035;-64
2023/05/16 00:42:31;;;;;;;12.00;2.50;;;;;;;7.24;100.00;102132.72;4987767;28;20033;-64
2023/05/16 00:44:57;;;;;;;16.52;2.17;;;;;;;7.21;100.00;102132.72;4986918;28;20105;-64
2023/05/16 00:47:22;;;;;;;14.98;2.47;;;;;;;7.20;100.00;102128.34;4988302;28;20131;-62
2023/05/16 00:49:47;;;;;;;14.80;2.60;;;;;;;7.21;100.00;102127.47;4987393;28;20089;-63
2023/05/16 00:52:13;;;;;;;19.92;2.10;;;;;;;7.22;100.00;102137.06;4986521;28;20089;-65
2023/05/16 00:54:38;;;;;;;15.65;2.55;;;;;;;7.18;100.00;102128.34;4969001;28;20114;-62
2023/05/16 00:57:04;;;;;;;12.50;2.38;;;;;;;7.22;100.00;102129.22;4983426;28;20030;-65
2023/05/16 00:59:30;;;;;;;14.27;2.13;;;;;;;7.16;100.00;102135.31;4967948;28;20027;-64
2023/05/16 01:01:55;;;;;;;12.88;2.10;;;;;;;7.16;100.00;102129.19;5057919;23;20065;-63
2023/05/16 01:04:21;;;;;;;14.30;2.25;;;;;;;7.10;100.00;102131.84;5018151;28;20053;-65
2023/05/16 01:06:46;;;;;;;15.32;2.30;;;;;;;7.10;100.00;102135.31;4982555;28;20089;-65
2023/05/16 01:09:12;;;;;;;21.92;2.90;;;;;;;7.07;100.00;102130.94;4968701;28;20030;-64
2023/05/16 01:11:59;;;;;;;16.55;2.50;;;;;;;7.07;100.00;102127.44;4968286;28;20176;-64
2023/05/16 01:14:33;;;;;;;19.88;2.38;;;;;;;7.03;100.00;102128.31;4967889;28;20524;-65
2023/05/16 01:17:36;;;;;;;12.90;2.38;;;;;;;7.01;100.00;102130.94;4967906;28;20105;-63
2023/05/16 01:20:03;;;;;;;12.32;2.30;;;;;;;6.96;100.00;102137.94;4981929;28;20484;-65
2023/05/16 01:22:33;;;;;;;11.00;2.10;;;;;;;6.94;100.00;102131.78;4986337;28;20540;-64
2023/05/16 01:25:10;;;;;;;15.88;2.40;;;;;;;6.92;100.00;102136.16;4987621;28;20037;-65
2023/05/16 01:27:37;;;;;;;13.30;2.17;;;;;;;6.89;100.00;102138.78;4986585;28;20022;-64
2023/05/16 01:30:14;;;;;;;18.35;2.47;;;;;;;6.88;100.00;102129.16;4976522;28;20045;-65
2023/05/16 01:32:40;;;;;;;17.95;2.33;;;;;;;6.89;100.00;102137.03;4969049;28;20034;-65
2023/05/16 01:35:06;;;;;;;14.20;2.22;;;;;;;6.88;100.00;102137.91;4968693;28;20031;-65
2023/05/16 01:37:36;;;;;;;10.38;1.88;;;;;;;6.91;100.00;102137.03;4974415;28;20038;-64
2023/05/16 01:40:04;;;;;;;11.63;2.08;;;;;;;6.94;100.00;102131.78;4985506;28;20091;-63
2023/05/16 01:42:34;;;;;;;17.70;2.67;;;;;;;6.97;100.00;102137.03;4985973;28;20022;-64
2023/05/16 01:45:11;;;;;;;17.00;2.03;;;;;;;7.02;100.00;102132.72;5018471;28;20033;-64
2023/05/16 01:47:39;;;;;;;9.98;2.20;;;;;;;7.00;100.00;102134.44;4987550;28;20687;-66
2023/05/16 01:50:09;;;;;;;15.50;2.17;;;;;;;6.94;100.00;102131.78;4989498;28;20531;-65
2023/05/16 01:52:48;;;;;;;9.10;2.05;;;;;;;6.91;100.00;102129.16;5005934;28;20068;-63
2023/05/16 01:55:18;;;;;;;14.75;2.30;;;;;;;6.94;100.00;102135.31;4993733;28;20472;-64
2023/05/16 01:57:44;;;;;;;15.80;2.17;;;;;;;6.91;100.00;102140.53;4985277;28;20524;-65
2023/05/16 02:00:10;;;;;;;13.15;2.50;;;;;;;6.88;100.00;102142.25;4985002;28;20037;-63
2023/05/16 02:02:36;;;;;;;13.77;2.30;;;;;;;6.86;100.00;102151.88;4987558;28;20042;-66
2023/05/16 02:05:01;;;;;;;17.73;2.85;;;;;;;6.88;100.00;102144.88;4987367;28;20744;-65
2023/05/16 02:07:27;;;;;;;11.95;2.00;;;;;;;6.88;100.00;102150.13;4973258;28;20113;-63
2023/05/16 02:09:52;;;;;;;16.52;2.72;;;;;;;6.87;100.00;102145.75;4968257;28;20058;-65
2023/05/16 02:12:18;;;;;;;14.60;2.88;;;;;;;6.82;100.00;102149.25;4967922;28;20034;-64
2023/05/16 02:14:43;;;;;;;7.70;1.95;;;;;;;6.82;100.00;102145.75;4967889;28;20023;-65
2023/05/16 02:17:08;;;;;;;16.55;2.53;;;;;;;6.80;100.00;102145.72;4987376;28;20046;-64
2023/05/16 02:19:34;;;;;;;11.10;2.33;;;;;;;6.75;100.00;102134.38;4985729;28;20033;-64
2023/05/16 02:21:59;;;;;;;13.05;1.90;;;;;;;6.72;100.00;102144.84;4987248;28;20037;-68
2023/05/16 02:24:24;;;;;;;11.55;2.00;;;;;;;6.70;100.00;102142.22;4987792;28;20524;-64
2023/05/16 02:26:50;;;;;;;7.72;2.22;;;;;;;6.71;100.00;102148.31;4986617;28;20023;-64
2023/05/16 02:29:15;;;;;;;11.40;2.30;;;;;;;6.75;100.00;102149.22;4987100;28;20520;-65
2023/05/16 02:31:41;;;;;;;12.88;2.67;;;;;;;6.76;100.00;102153.56;4987979;28;20114;-65
2023/05/16 02:34:07;;;;;;;11.55;1.98;;;;;;;6.86;100.00;102151.88;4986886;28;20018;-63
2023/05/16 02:36:34;;;;;;;9.88;2.63;;;;;;;6.91;100.00;102147.50;4990993;28;20118;-66
2023/05/16 02:39:00;;;;;;;13.93;2.55;;;;;;;6.92;100.00;102151.88;5020860;28;20133;-64
2023/05/16 02:41:26;;;;;;;17.38;2.17;;;;;;;6.98;100.00;102156.28;4991049;28;20022;-65
2023/05/16 02:43:51;;;;;;;14.02;3.47;;;;;;;7.04;100.00;102157.16;4989928;28;20026;-65
2023/05/16 02:46:22;;;;;;;13.82;2.03;;;;;;;7.09;100.00;102154.53;4991706;28;20053;-64
2023/05/16 02:48:48;;;;;;;10.27;1.80;;;;;;;7.12;100.00;102159.78;4990757;28;20070;-63
2023/05/16 02:51:13;;;;;;;8.05;1.90;;;;;;;7.10;100.00;102153.66;4989707;28;20029;-64
2023/05/16 02:53:39;;;;;;;9.60;2.15;;;;;;;7.05;100.00;102169.38;4991399;28;20027;-64
2023/05/16 02:56:05;;;;;;;10.65;1.90;;;;;;;7.03;100.00;102170.25;4972346;28;20026;-64
2023/05/16 02:58:31;;;;;;;8.98;2.38;;;;;;;6.94;100.00;102165.88;4969950;28;20057;-64
2023/05/16 03:00:57;;;;;;;10.68;2.00;;;;;;;6.87;100.00;102158.88;4984570;28;20715;-63
2023/05/16 03:03:22;;;;;;;9.40;1.90;;;;;;;6.81;100.00;102165.81;4989862;28;20033;-65
2023/05/16 03:05:48;;;;;;;11.85;2.10;;;;;;;6.80;100.00;102165.81;4989918;28;20027;-65
2023/05/16 03:08:13;;;;;;;13.57;2.50;;;;;;;6.79;100.00;102166.69;4990826;28;20062;-62
2023/05/16 03:10:38;;;;;;;11.68;2.05;;;;;;;6.79;100.00;102172.81;4973169;28;20049;-65
2023/05/16 03:13:04;;;;;;;19.40;2.53;;;;;;;6.79;100.00;102172.81;4989543;28;20026;-66
2023/05/16 03:15:29;;;;;;;6.75;1.92;;;;;;;6.75;100.00;102178.91;4989771;28;20437;-65
2023/05/16 03:17:54;;;;;;;18.75;4.18;;;;;;;6.74;100.00;102174.53;4991053;28;20106;-66
2023/05/16 03:20:20;;;;;;;13.43;1.73;;;;;;;6.71;100.00;102174.50;4991454;28;20038;-63
2023/05/16 03:22:45;;;;;;;11.70;2.42;;;;;;;6.70;100.00;102178.00;4992549;28;20030;-64
2023/05/16 03:25:10;;;;;;;11.45;2.05;;;;;;;6.66;100.00;102173.63;4992831;28;20105;-63
2023/05/16 03:27:36;;;;;;;12.70;2.38;;;;;;;6.59;100.00;102183.19;4992150;28;20106;-63
2023/05/16 03:30:01;;;;;;;7.75;1.90;;;;;;;6.52;100.00;102181.41;4990674;28;20027;-63
2023/05/16 03:32:26;;;;;;;13.15;2.60;;;;;;;6.47;100.00;102181.41;4979747;28;20018;-63
2023/05/16 03:34:52;;;;;;;15.15;2.10;;;;;;;6.48;100.00;102183.16;4971741;28;20106;-65
2023/05/16 03:37:17;;;;;;;14.38;2.72;;;;;;;6.54;100.00;102188.41;4970352;28;20102;-65
2023/05/16 03:39:42;;;;;;;9.38;2.15;;;;;;;6.61;100.00;102189.34;4970476;28;20494;-63
2023/05/16 03:42:08;;;;;;;12.05;2.08;;;;;;;6.74;100.00;102189.38;4971126;28;20025;-64
2023/05/16 03:44:33;;;;;;;10.98;2.03;;;;;;;6.83;100.00;102187.66;4972237;28;20406;-64
2023/05/16 03:46:58;;;;;;;11.38;2.05;;;;;;;6.89;100.00;102180.72;4970051;28;20539;-63
2023/05/16 03:49:28;;;;;;;10.45;1.95;;;;;;;6.93;100.00;102182.47;4971254;28;20049;-64
2023/05/16 03:51:54;;;;;;;9.82;2.00;;;;;;;6.95;100.00;102186.84;4986574;28;20026;-64
2023/05/16 03:54:19;;;;;;;11.90;3.20;;;;;;;6.98;100.00;102183.34;4971866;28;20733;-65
2023/05/16 03:56:45;;;;;;;8.27;2.20;;;;;;;7.04;100.00;102187.72;4971289;28;20058;-63
2023/05/16 03:59:10;;;;;;;12.27;2.35;;;;;;;7.11;100.00;102194.75;4971763;28;20506;-64
2023/05/16 04:01:35;;;;;;;11.07;2.85;;;;;;;7.13;100.00;102186.91;4985115;28;20046;-65
2023/05/16 04:04:01;;;;;;;5.05;1.80;;;;;;;7.10;100.00;102187.75;4990744;28;20358;-66
2023/05/16 04:06:26;;;;;;;12.27;1.98;;;;;;;7.09;100.00;102191.25;4991849;28;20523;-64
2023/05/16 04:08:51;;;;;;;11.05;2.50;;;;;;;7.07;100.00;102190.34;4985875;28;20092;-62
2023/05/16 04:11:17;;;;;;;15.80;1.98;;;;;;;7.08;100.00;102195.59;4985464;28;20085;-64
2023/05/16 04:13:42;;;;;;;13.73;2.22;;;;;;;7.16;100.00;102195.63;4976683;28;20049;-64
2023/05/16 04:16:07;;;;;;;15.43;2.55;;;;;;;7.25;100.00;102197.38;4990763;28;20141;-65
2023/05/16 04:18:33;;;;;;;11.55;2.28;;;;;;;7.32;100.00;102199.16;4990679;28;20037;-65
2023/05/16 04:20:58;;;;;;;13.52;2.63;;;;;;;7.33;100.00;102200.03;4990835;28;20041;-64
2023/05/16 04:23:23;;;;;;;13.85;2.55;;;;;;;7.35;100.00;102203.53;4989696;28;20030;-64
2023/05/16 04:25:49;;;;;;;9.70;1.98;;;;;;;7.36;100.00;102212.25;5021494;28;20069;-64
2023/05/16 04:28:15;;;;;;;16.15;2.40;;;;;;;7.32;100.00;102203.53;4972739;28;20151;-63
2023/05/16 04:30:40;;;;;;;13.93;2.60;;;;;;;7.35;100.00;102202.66;4981482;28;20077;-64
2023/05/16 04:33:06;;;;;;;12.50;2.15;;;;;;;7.35;100.00;102200.91;4990012;28;20045;-64
2023/05/16 04:35:32;;;;;;;14.02;2.38;;;;;;;7.37;100.00;102217.50;4988703;28;20384;-64
2023/05/16 04:37:57;;;;;;;11.65;1.88;;;;;;;7.36;100.00;102218.41;4988886;28;20057;-64
2023/05/16 04:40:24;;;;;;;15.57;2.30;;;;;;;7.38;100.00;102218.41;4989489;28;20062;-63
2023/05/16 04:42:49;;;;;;;14.40;1.98;;;;;;;7.43;100.00;102219.25;4989041;28;20559;-64
2023/05/16 04:45:15;;;;;;;8.75;2.28;;;;;;;7.49;100.00;102213.19;4987765;28;20030;-66
2023/05/16 04:47:41;;;;;;;8.27;1.90;;;;;;;7.58;100.00;102224.53;5013035;28;20034;-65
2023/05/16 04:50:07;;;;;;;10.82;2.10;;;;;;;7.69;100.00;102221.94;4985343;28;20357;-63
2023/05/16 04:52:33;;;;;;;13.32;2.10;;;;;;;7.76;100.00;102222.78;4988772;28;20042;-64
2023/05/16 04:54:59;;;;;;;9.52;1.98;;;;;;;7.83;100.00;102221.91;5019002;28;20018;-63
2023/05/16 04:57:24;;;;;;;12.40;2.22;;;;;;;7.92;100.00;102220.19;4970791;28;20027;-64
2023/05/16 04:59:50;;;;;;;11.43;2.17;;;;;;;8.00;100.00;102222.81;4965892;28;20027;-63
2023/05/16 05:02:15;;;;;;;7.80;1.65;;;;;;;8.10;100.00;102224.56;4984399;28;20514;-64
2023/05/16 05:04:41;;;;;;;9.30;1.90;;;;;;;8.20;100.00;102225.41;4987693;28;20018;-65
2023/05/16 05:07:07;;;;;;;12.93;1.88;;;;;;;8.30;100.00;102226.25;4986332;28;20477;-65
2023/05/16 05:09:32;;;;;;;8.93;2.42;;;;;;;8.36;100.00;102233.25;4987366;28;20022;-65
2023/05/16 05:11:57;;;;;;;15.93;2.45;;;;;;;8.42;100.00;102238.47;4986220;28;20126;-65
2023/05/16 05:14:23;;;;;;;11.73;1.95;;;;;;;8.52;100.00;102242.81;4987179;28;20026;-65
2023/05/16 05:16:48;;;;;;;11.40;1.90;;;;;;;8.63;100.00;102245.47;4987269;28;20030;-63
2023/05/16 05:19:13;;;;;;;7.90;1.67;;;;;;;8.71;100.00;102245.44;4988233;28;20384;-63
2023/05/16 05:21:39;;;;;;;9.30;1.60;;;;;;;8.78;100.00;102236.66;4988092;28;20022;-63
2023/05/16 05:24:05;;;;;;;11.60;1.70;;;;;;;8.89;100.00;102246.25;4976031;28;20041;-65
2023/05/16 05:26:30;;;;;;;10.90;2.03;;;;;;;8.95;100.00;102240.97;4999492;28;20090;-62
2023/05/16 05:28:55;;;;;;;13.55;2.03;;;;;;;9.06;100.00;102241.78;4998331;28;20101;-63
2023/05/16 05:31:21;;;;;;;12.75;2.30;;;;;;;9.18;100.00;102254.00;4968783;28;20062;-63
2023/05/16 05:33:46;;;;;;;13.57;2.17;;;;;;;9.25;100.00;102246.06;4967714;28;20066;-64
2023/05/16 05:36:11;;;;;;;15.43;1.70;;;;;;;9.38;100.00;102244.25;4979899;28;20032;-63
2023/05/16 05:38:37;;;;;;;9.57;1.60;;;;;;;9.46;100.00;102250.34;4988294;28;20031;-63
2023/05/16 05:41:03;;;;;;;11.38;2.22;;;;;;;9.54;100.00;102256.41;4986973;28;20125;-63
2023/05/16 05:43:28;;;;;;;9.25;1.80;;;;;;;9.72;100.00;102249.25;4987330;28;20023;-63
2023/05/16 05:45:54;;;;;;;6.30;1.25;;;;;;;9.80;100.00;102254.47;4986755;28;20093;-63
2023/05/16 05:48:19;;;;;;;10.15;1.75;;;;;;;9.89;100.00;102258.78;4987852;28;20040;-64
2023/05/16 05:50:45;;;;;;;9.30;2.33;;;;;;;9.96;100.00;102257.84;4987741;28;20031;-65
2023/05/16 05:53:10;;;;;;;9.00;1.70;;;;;;;10.09;100.00;102256.84;5018905;28;20025;-64
2023/05/16 05:55:35;;;;;;;10.55;1.63;;;;;;;10.23;100.00;102256.75;4987816;28;20389;-63
2023/05/16 05:58:01;;;;;;;10.00;1.38;;;;;;;10.44;100.00;102253.88;4986033;28;20053;-63
2023/05/16 06:00:27;;;;;;;12.40;1.70;;;;;;;10.66;100.00;102256.34;4967937;28;20071;-64
2023/05/16 06:02:52;;;;;;;12.70;1.88;;;;;;;10.93;100.00;102256.91;4967737;28;20054;-63
2023/05/16 06:05:18;;;;;;;10.20;1.42;;;;;;;11.15;100.00;102256.59;4968009;28;20030;-64
2023/05/16 06:07:43;;;;;;;5.53;1.02;;;;;;;11.54;100.00;102266.63;4967699;28;20078;-63
2023/05/16 06:10:08;;;;;;;16.20;2.35;;;;;;;11.77;100.00;102250.41;4970369;28;20027;-63
2023/05/16 06:12:34;;;;;;;10.55;1.88;;;;;;;11.66;100.00;102265.56;4991417;28;20030;-63
2023/05/16 06:14:59;;;;;;;5.32;1.20;;;;;;;11.35;100.00;102264.28;4979735;28;20161;-64
2023/05/16 06:17:25;;;;;;;10.95;2.15;;;;;;;11.10;100.00;102276.00;4982807;28;20026;-63
2023/05/16 06:19:50;;;;;;;14.40;1.90;;;;;;;10.90;100.00;102280.66;4978128;28;20109;-63
2023/05/16 06:22:16;;;;;;;8.55;1.92;;;;;;;10.84;100.00;102277.19;4975710;28;20054;-65
2023/05/16 06:24:41;;;;;;;7.22;1.65;;;;;;;10.80;100.00;102277.25;4988880;28;20166;-62
2023/05/16 06:27:07;;;;;;;5.95;1.42;;;;;;;10.70;100.00;102276.50;4987899;28;20034;-62
2023/05/16 06:29:33;;;;;;;11.55;1.60;;;;;;;10.77;100.00;102286.06;4988626;28;20018;-65
2023/05/16 06:31:58;;;;;;;12.48;1.60;;;;;;;10.76;100.00;102286.97;4989447;28;20026;-62
2023/05/16 06:34:27;;;;;;;8.50;1.30;;;;;;;10.82;100.00;102276.38;4983419;28;20073;-64
2023/05/16 06:36:52;;;;;;;5.60;1.30;;;;;;;10.76;100.00;102286.97;4989623;28;20026;-64
2023/05/16 06:39:18;;;;;;;6.35;1.15;;;;;;;10.90;100.00;102286.84;4988387;28;20033;-63
2023/05/16 06:41:44;;;;;;;9.95;1.90;;;;;;;11.06;100.00;102284.00;4987140;28;20029;-64
2023/05/16 06:44:10;;;;;;;8.45;1.63;;;;;;;11.14;100.00;102282.13;4985140;28;20501;-61
2023/05/16 06:46:35;;;;;;;11.25;2.15;;;;;;;11.26;100.00;102289.03;4988295;28;20064;-60
2023/05/16 06:49:01;;;;;;;6.85;1.55;;;;;;;11.42;100.00;102287.03;4985796;28;20034;-66
2023/05/16 06:51:26;;;;;;;6.82;1.40;;;;;;;11.38;100.00;102290.63;4973474;28;20445;-65
2023/05/16 06:53:51;;;;;;;7.13;0.98;;;;;;;11.42;100.00;102286.16;4977050;28;20043;-64
2023/05/16 06:56:17;;;;;;;11.75;1.38;;;;;;;11.52;100.00;102277.19;4979527;28;20512;-65
2023/05/16 06:58:42;;;;;;;8.70;1.20;;;;;;;11.41;100.00;102289.69;4976529;28;20034;-63
2023/05/16 07:01:07;;;;;;;8.70;2.20;;;;;;;11.41;100.00;102297.59;4979274;28;20023;-63
2023/05/16 07:03:33;;;;;;;8.55;1.90;;;;;;;11.35;100.00;102296.78;4974531;28;20046;-62
2023/05/16 07:05:58;;;;;;;8.20;1.45;;;;;;;11.49;100.00;102303.63;4989360;28;20105;-64
2023/05/16 07:08:24;;;;;;;7.47;1.30;;;;;;;11.71;100.00;102296.28;4986086;28;20105;-64
2023/05/16 07:10:50;;;;;;;5.60;1.50;;;;;;;11.83;100.00;102308.41;4988304;28;20542;-62
2023/05/16 07:13:15;;;;;;;6.43;1.42;;;;;;;11.76;100.00;102301.50;4988308;28;20074;-62
2023/05/16 07:15:40;;;;;;;7.47;1.77;;;;;;;11.70;100.00;102306.84;4985394;28;20027;-65
2023/05/16 07:18:06;;;;;;;9.63;1.67;;;;;;;11.68;100.00;102301.59;4969331;28;20031;-63
2023/05/16 07:20:31;;;;;;;10.32;1.40;;;;;;;11.83;100.00;102297.84;4968086;28;20458;-64
2023/05/16 07:22:57;;;;;;;9.43;1.42;;;;;;;11.99;100.00;102303.78;4969199;28;20426;-63
2023/05/16 07:25:23;;;;;;;8.88;1.33;;;;;;;11.96;100.00;102308.22;4976248;28;20030;-64
2023/05/16 07:27:48;;;;;;;5.13;1.40;;;;;;;12.09;100.00;102309.81;4976310;28;20136;-66
2023/05/16 07:30:14;;;;;;;11.50;2.00;;;;;;;12.15;99.17;102316.75;4971481;28;20031;-62
2023/05/16 07:32:39;;;;;;;6.07;1.35;;;;;;;12.21;98.15;102308.72;4979991;28;20102;-63
2023/05/16 07:35:05;;;;;;;4.15;1.00;;;;;;;12.33;99.61;102312.03;4976817;28;20308;-64
2023/05/16 07:37:30;;;;;;;6.97;1.40;;;;;;;12.56;96.47;102313.41;4978437;28;20100;-63
2023/05/16 07:39:56;;;;;;;7.85;1.83;;;;;;;12.39;97.30;102319.88;4976688;28;20023;-63
2023/05/16 07:42:21;;;;;;;8.18;1.42;;;;;;;12.59;98.48;102308.94;4969916;28;20500;-64
2023/05/16 07:44:47;;;;;;;8.00;1.60;;;;;;;12.77;99.27;102312.13;4967601;28;20461;-65
2023/05/16 07:47:12;;;;;;;7.75;1.50;;;;;;;12.76;93.96;102315.66;4969310;28;20525;-63
2023/05/16 07:49:37;;;;;;;10.48;1.80;;;;;;;12.76;94.30;102313.00;4987565;28;20022;-65
2023/05/16 07:52:03;;;;;;;8.93;1.48;;;;;;;12.71;95.22;102314.88;4982965;28;20042;-63
2023/05/16 07:54:30;;;;;;;4.78;1.08;;;;;;;12.75;96.33;102320.09;4969241;28;20045;-64
2023/05/16 07:56:55;;;;;;;7.75;1.35;;;;;;;12.79;96.03;102336.75;4967467;28;20489;-64
2023/05/16 07:59:21;;;;;;;5.55;1.30;;;;;;;12.76;94.51;102323.59;4967452;28;20027;-63
2023/05/16 08:01:46;;;;;;;7.38;1.77;;;;;;;12.86;95.24;102333.09;4969449;28;20070;-63
2023/05/16 08:04:12;;;;;;;5.57;1.63;;;;;;;13.18;94.36;102327.19;4970262;28;20031;-63
2023/05/16 08:06:37;;;;;;;8.90;1.30;;;;;;;13.12;94.19;102341.41;4968509;28;20553;-64
2023/05/16 08:09:02;;;;;;;9.55;1.33;;;;;;;12.98;91.80;102328.47;4969043;28;20037;-64
2023/05/16 08:11:28;;;;;;;7.40;1.60;;;;;;;12.91;93.13;102327.72;4968313;28;20027;-63
2023/05/16 08:13:53;;;;;;;6.22;1.23;;;;;;;12.93;91.70;102311.81;4969057;28;20038;-62
2023/05/16 08:16:18;;;;;;;9.93;1.52;;;;;;;12.91;91.24;102318.91;4968886;28;20034;-65
2023/05/16 08:18:44;;;;;;;6.50;1.63;;;;;;;13.13;90.66;102336.09;4967282;28;20038;-64
2023/05/16 08:21:09;;;;;;;6.13;1.23;;;;;;;13.25;89.96;102323.50;4968834;28;20027;-63
2023/05/16 08:23:35;;;;;;;9.68;1.63;;;;;;;13.43;90.44;102329.31;4975748;28;20038;-65
2023/05/16 08:26:01;;;;;;;9.07;1.75;;;;;;;13.24;91.85;102322.63;4974824;28;20063;-64
2023/05/16 08:28:27;;;;;;;11.23;1.60;;;;;;;12.93;93.08;102327.69;4968830;28;20034;-65
2023/05/16 08:30:52;;;;;;;10.52;1.45;;;;;;;12.93;92.67;102332.97;4968350;28;20432;-61
2023/05/16 08:33:18;;;;;;;8.60;1.50;;;;;;;12.84;94.10;102334.91;4968306;28;20382;-64
2023/05/16 08:35:43;;;;;;;10.93;1.67;;;;;;;12.86;95.33;102343.66;4967272;28;20110;-66
2023/05/16 08:38:09;;;;;;;7.07;1.02;;;;;;;12.93;92.93;102343.56;4967334;28;20092;-67
2023/05/16 08:40:34;;;;;;;5.38;1.25;;;;;;;12.84;93.01;102332.28;4970832;28;20077;-65
2023/05/16 08:43:00;;;;;;;6.43;1.27;;;;;;;12.80;92.96;102341.16;4968260;28;20031;-64
2023/05/16 08:45:25;;;;;;;5.78;1.38;;;;;;;12.74;93.58;102338.63;4973428;28;20019;-64
2023/05/16 08:47:53;;;;;;;9.43;1.38;;;;;;;12.61;93.15;102333.56;5010130;28;20030;-62
2023/05/16 08:50:19;;;;;;;6.83;1.63;;;;;;;12.66;92.42;102335.25;4985520;28;20036;-63
2023/05/16 08:52:46;;;;;;;8.43;1.17;;;;;;;12.82;92.11;102342.00;4986301;28;20281;-63
2023/05/16 08:55:12;;;;;;;5.10;1.25;;;;;;;12.90;91.66;102339.22;4984785;28;20034;-64
2023/05/16 08:57:39;;;;;;;5.30;1.33;;;;;;;12.97;92.42;102329.34;4981955;28;20505;-64
2023/05/16 09:00:10;;;;;;;5.78;1.23;;;;;;;13.10;90.78;102344.09;4975745;28;20019;-65
2023/05/16 09:02:37;;;;;;;5.32;1.25;;;;;;;13.30;87.73;102336.66;4981558;28;20042;-63
2023/05/16 09:05:03;;;;;;;7.03;1.30;;;;;;;13.55;87.65;102342.31;4977532;28;20027;-64
2023/05/16 09:07:28;;;;;;;7.85;1.20;;;;;;;13.45;87.63;102346.03;4973702;28;20491;-65
2023/05/16 09:09:54;;;;;;;7.32;1.85;;;;;;;13.68;86.90;102344.66;4973923;28;20045;-63
2023/05/16 09:12:19;;;;;;;11.05;1.67;;;;;;;13.76;89.04;102337.44;5016291;28;20038;-62
2023/05/16 09:14:46;;;;;;;8.82;1.55;;;;;;;13.77;88.84;102347.13;4979181;28;20051;-62
2023/05/16 09:17:11;;;;;;;11.75;2.47;;;;;;;13.72;86.12;102348.97;4977877;28;20504;-63
2023/05/16 09:19:42;;;;;;;12.18;1.67;;;;;;;13.77;86.84;102349.75;4982044;28;20026;-65
2023/05/16 09:22:15;;;;;;;7.40;1.40;;;;;;;13.79;85.08;102355.03;4970253;28;20033;-63
2023/05/16 09:24:42;;;;;;;10.65;1.60;;;;;;;13.54;86.26;102351.16;4984596;28;20022;-62
2023/05/16 09:27:14;;;;;;;9.23;1.33;;;;;;;13.94;83.42;102353.78;4984252;28;20038;-62
2023/05/16 09:29:43;;;;;;;9.68;1.30;;;;;;;14.08;82.25;102356.97;4983881;28;20022;-63
2023/05/16 09:32:12;;;;;;;8.77;1.73;;;;;;;14.42;81.11;102367.66;4978261;28;20101;-65
2023/05/16 09:34:48;;;;;;;5.82;1.30;;;;;;;14.06;82.28;102364.06;4967674;28;20481;-63
2023/05/16 09:37:14;;;;;;;7.75;1.40;;;;;;;13.92;84.99;102359.13;4981909;28;20014;-64
2023/05/16 09:39:48;;;;;;;6.85;1.58;;;;;;;14.08;84.84;102359.63;4977403;28;20018;-63
2023/05/16 09:42:15;;;;;;;5.28;1.00;;;;;;;14.12;82.91;102355.97;4981582;28;20022;-64
2023/05/16 09:44:41;;;;;;;6.65;1.45;;;;;;;14.43;82.98;102356.13;4971467;28;20030;-65
2023/05/16 09:47:06;;;;;;;8.70;1.48;;;;;;;14.40;82.61;102357.97;4975137;28;20026;-63
2023/05/16 09:49:32;;;;;;;11.65;1.48;;;;;;;14.81;80.75;102356.91;4967992;28;20396;-63
2023/05/16 09:52:01;;;;;;;11.82;1.60;;;;;;;14.98;78.56;102355.56;4981930;28;20090;-64
2023/05/16 09:54:33;;;;;;;9.57;1.33;;;;;;;14.77;75.30;102361.41;4974367;28;20078;-66
2023/05/16 09:56:59;;;;;;;6.75;1.30;;;;;;;14.64;77.20;102358.22;4981707;28;20121;-67
2023/05/16 09:59:27;;;;;;;5.82;1.52;;;;;;;14.76;76.57;102354.38;4965883;28;20117;-63
2023/05/16 10:01:53;;;;;;;9.35;1.33;;;;;;;14.48;76.07;102368.34;4964733;28;20085;-62
2023/05/16 10:04:18;;;;;;;5.43;1.02;;;;;;;14.60;75.95;102369.81;4966042;28;20058;-65
2023/05/16 10:06:44;;;;;;;5.70;0.90;;;;;;;14.87;70.31;102363.84;4966697;28;20027;-64
2023/05/16 10:09:11;;;;;;;7.30;1.40;;;;;;;14.96;74.27;102368.03;4966270;28;20039;-63
2023/05/16 10:11:37;;;;;;;5.25;1.55;;;;;;;14.96;75.59;102376.00;4965528;28;20109;-64
2023/05/16 10:14:04;;;;;;;3.30;0.80;;;;;;;14.61;78.75;102366.25;4996886;28;20023;-64
2023/05/16 10:16:30;;;;;;;6.03;1.15;;;;;;;14.71;77.78;102363.34;4999075;28;20022;-62
2023/05/16 10:18:56;;;;;;;5.88;1.83;;;;;;;14.50;75.16;102368.31;4981015;28;20529;-65
2023/05/16 10:21:22;;;;;;;5.22;1.08;;;;;;;14.72;73.73;102368.59;4965106;28;20110;-65
2023/05/16 10:23:49;;;;;;;5.35;1.27;;;;;;;15.10;76.94;102368.50;4966111;28;20049;-63
2023/05/16 10:26:16;;;;;;;5.35;1.40;;;;;;;14.90;76.14;102364.63;4996660;28;20037;-63
2023/05/16 10:28:41;;;;;;;7.03;1.45;;;;;;;14.94;75.18;102373.38;4967514;28;20050;-63
2023/05/16 10:31:07;;;;;;;5.13;1.23;;;;;;;15.16;71.08;102363.00;4965913;28;20026;-64
2023/05/16 10:33:34;;;;;;;4.63;1.38;;;;;;;15.03;72.56;102365.13;4995967;28;20027;-63
2023/05/16 10:36:00;;;;;;;9.15;1.38;;;;;;;15.25;72.00;102359.22;4966354;28;20043;-66
2023/05/16 10:38:27;;;;;;;4.15;0.95;;;;;;;15.52;69.60;102358.44;4980341;28;20037;-66
2023/05/16 10:40:52;;;;;;;5.50;1.20;;;;;;;15.34;70.32;102360.72;4998539;28;20054;-63
2023/05/16 10:43:26;;;;;;;2.58;1.17;;;;;;;15.38;74.16;102350.91;4980249;28;20029;-62
2023/05/16 10:46:02;;;;;;;8.30;1.38;;;;;;;15.33;72.13;102351.03;4965060;28;20026;-62
2023/05/16 10:48:33;;;;;;;3.92;1.20;;;;;;;15.56;71.88;102345.94;4966894;28;20081;-65
2023/05/16 10:51:01;;;;;;;5.60;1.20;;;;;;;15.18;75.88;102360.31;4964566;28;20033;-65
2023/05/16 10:53:31;;;;;;;5.07;1.10;;;;;;;15.05;78.19;102351.81;4965767;28;20164;-64
2023/05/16 10:56:05;;;;;;;7.15;1.90;;;;;;;15.02;76.50;102357.25;4967555;28;20031;-67
2023/05/16 10:58:37;;;;;;;4.90;1.10;;;;;;;15.03;73.09;102349.19;4970906;28;20082;-66
2023/05/16 11:01:25;;;;;;;11.10;1.60;;;;;;;14.98;72.60;102361.75;4970767;28;20519;-61
2023/05/16 11:03:56;;;;;;;4.43;1.20;;;;;;;15.02;74.62;102349.28;4980547;28;20731;-65
2023/05/16 11:06:26;;;;;;;5.85;1.17;;;;;;;15.00;74.02;102353.75;4979035;28;20027;-66
2023/05/16 11:09:09;;;;;;;9.20;1.50;;;;;;;15.07;74.00;102354.44;4976415;28;20126;-65
2023/05/16 11:11:57;;;;;;;7.40;1.42;;;;;;;15.16;74.20;102352.41;4973346;28;20027;-64
2023/05/16 11:14:32;;;;;;;5.15;1.30;;;;;;;15.45;78.17;102332.97;4968944;28;20433;-63
2023/05/16 11:17:05;;;;;;;9.18;1.40;;;;;;;15.83;74.35;102340.66;4970915;28;20318;-63